Weather observations for the past three days for
Montrose, Montrose Regional Airport
Metric (Imperial)
Date Time (mdt) Wind (kph) Vis. (km) Weather Sky Cond. Temperature (ºC) Relative Humidity Wind Chill (°C) Heat Index (°C) Pressure Precipitation (cm)
Air Dwpt 6 hour altimeter (cm) sea level (mb) 1 hr 3 hr 6 hr
Max. Min.
08 05:53 S 9 16.09 Mostly Cloudy BKN110 7.8 0.6 13.3 7.8 61% 6 76.35 1012.3
08 04:53 SE 7 16.09 Mostly Cloudy BKN110 8.3 0.6 59% 7 76.35 1012.2
08 03:53 S 11 16.09 A Few Clouds FEW110 8.3 0 56% 7 76.33 1011.9
08 02:53 SE 15 16.09 Partly Cloudy SCT120 10.6 0 48% 76.35 1011.9
08 01:53 S 11 16.09 Partly Cloudy SCT120 11.1 0.6 49% 76.35 1012.0
08 00:53 SE 11 16.09 Mostly Cloudy BKN110 12.8 0.6 44% 76.38 1012.5
07 23:53 SE 11 16.09 Fair CLR 13.3 1.7 21.1 13.3 46% 76.38 1012.7
07 22:53 S 11 16.09 Mostly Cloudy BKN110 14.4 1.1 41% 76.38 1013.0
07 21:53 S 11 16.09 Mostly Cloudy BKN120 15 0.6 38% 76.35 1013.1
07 20:53 Calm 16.09 Fair CLR 17.2 -2.2 27% 76.3 1012.4
07 19:53 N 6 16.09 Mostly Cloudy BKN110 18.9 -2.2 24% 76.28 1012.1
07 18:53 N 7 16.09 Fair CLR 19.4 -2.8 22% 76.25 1012.4
07 17:53 Vrbl 6 16.09 Fair CLR 21.1 -3.3 21.1 14.4 19% 76.28 1012.5
07 16:53 NW 20 16.09 Fair CLR 20.6 -3.3 20% 76.33 1012.7
07 15:53 NW 11 16.09 Fair CLR 20 -3.9 20% 76.38 1013.4
07 14:53 Calm 16.09 Fair CLR 19.4 -5 19% 76.45 1014.7
07 13:53 E 9 16.09 Fair CLR 18.3 -6.1 19% 76.5 1015.6
07 12:53 Vrbl 6 16.09 Fair CLR 16.1 -6.1 21% 76.58 1017.1
07 11:53 Calm 16.09 Fair CLR 14.4 -6.1 14.4 0.6 24% 76.66 1018.4
07 10:53 S 6 16.09 Fair CLR 12.2 -6.1 28% 76.71 1019.3
07 09:53 Calm 16.09 Fair CLR 9.4 -7.2 31% 76.78 1020.6
07 08:53 Calm 16.09 Fair CLR 6.7 -6.1 40% 76.84 1021.2
07 07:53 SE 13 16.09 Fair CLR 4.4 -6.1 47% 2 76.84 1021.3
07 06:53 SE 9 16.09 Fair CLR 1.1 -5.6 61% -1 76.81 1021.4
07 05:53 S 13 16.09 Fair CLR 1.1 -5 3.9 0.6 64% -2 76.78 1021.1
07 04:53 SE 13 16.09 Fair CLR 2.2 -5.6 57% -1 76.76 1020.7
07 03:53 SE 17 16.09 Fair CLR 2.8 -5.6 54% -1 76.78 1020.6
07 02:53 SE 19 16.09 Fair CLR 2.8 -5 57% -1 76.78 1020.9
07 01:53 SE 20 16.09 Fair CLR 3.3 -3.9 60% -1 76.78 1021.0
07 00:53 SE 13 16.09 Fair CLR 2.8 -3.3 65% -0 76.84 1021.9
06 23:53 SE 15 16.09 Fair CLR 3.3 -3.3 12.2 3.3 62% 0 76.84 1022.0
06 22:53 SE 17 16.09 Fair CLR 4.4 -3.3 58% 1 76.81 1022.1
06 21:53 SE 11 16.09 Fair CLR 6.1 -3.9 49% 4 76.73 1021.0
06 20:53 W 6 16.09 Fair CLR 8.3 -5.6 37% 76.66 1019.6
06 19:53 W 15 16.09 Fair CLR 10.6 -7.8 27% 76.58 1018.2
06 18:53 NW 24 16.09 Fair CLR 11.7 -8.9 23% 76.53 1016.5
06 17:53 W 22 16.09 Fair CLR 12.2 -8.3 12.8 8.3 23% 76.48 1015.8
06 16:53 W 31 G 41 16.09 Fair CLR 12.2 -7.8 24% 76.45 1015.0
06 15:53 NW 30 G 44 16.09 A Few Clouds FEW080 12.2 -7.2 25% 76.45 1015.0
06 14:53 NW 30 G 46 16.09 Fair CLR 11.1 -6.7 28% 76.43 1014.8
06 13:53 NW 31 G 50 16.09 Fair CLR 10.6 -5.6 32% 76.4 1014.3
06 12:53 NW 31 G 46 16.09 Mostly Cloudy BKN060 8.9 -4.4 39% 5 76.38 1014.7
06 11:53 NW 20 G 35 16.09 Overcast OVC046 7.8 -2.2 7.8 3.3 50% 5 76.38 1014.8 0.51
06 10:53 NW 11 16.09 Overcast FEW026 SCT032 OVC090 5.6 1.1 73% 3 76.35 1014.9
06 09:53 E 11 16.09 Overcast FEW018 BKN055 OVC070 4.4 1.7 83% 2 76.25 1013.2
06 08:53 W 9 16.09 Light Rain OVC028 3.3 1.7 89% 1 76.2 1012.7 0.2 0.51
06 07:53 NW 35 G 50 4.02 Heavy Rain Fog/Mist and Breezy FEW006 OVC022 3.3 2.2 93% -2 76.15 1011.6 0.3
06 06:53 S 9 16.09 Overcast BKN060 OVC075 7.8 2.8 71% 6 75.92 1006.7
06 05:53 SE 7 16.09 Overcast BKN060 BKN070 OVC080 7.2 3.3 10.6 7.2 77% 6 75.9 1006.4
06 04:53 E 13 16.09 Overcast BKN060 OVC080 8.3 2.2 66% 6 75.9 1005.8
06 03:53 E 11 16.09 Overcast OVC055 8.9 1.7 61% 7 75.87 1005.6
06 02:53 SW 9 16.09 Overcast BKN070 OVC090 10 -0.6 48% 9 75.87 1005.3
06 01:53 Calm 16.09 Overcast BKN060 OVC090 10 -1.1 46% 75.9 1005.8
06 00:53 SE 15 16.09 Overcast OVC075 8.9 -1.1 50% 7 75.87 1006.0
05 23:53 SE 15 16.09 Fair CLR 8.3 -1.1 18.9 8.3 52% 6 75.84 1005.7
05 22:53 SE 11 16.09 Fair CLR 8.9 -0.6 52% 7 75.82 1005.3
05 21:53 N 7 16.09 Fair CLR 11.1 -0.6 45% 75.77 1004.7
05 20:53 NW 24 G 39 16.09 Fair CLR 12.2 -0.6 42% 75.69 1003.6
05 19:53 NW 35 G 48 16.09 A Few Clouds and Breezy FEW120 14.4 -1.7 33% 75.59 1001.9
05 18:53 SW 22 16.09 A Few Clouds FEW120 18.3 -10.6 13% 75.49 999.8
05 17:53 SW 19 G 41 16.09 A Few Clouds FEW120 18.9 -11.7 20 17.8 11% 75.49 999.8
05 16:53 SW 31 G 48 16.09 Fair CLR 20 -11.7 11% 75.51 1000.1
05 15:53 W 30 G 50 16.09 Fair CLR 19.4 -13.3 10% 75.57 1000.8
05 14:53 SW 39 G 59 16.09 Fair and Breezy CLR 19.4 -11.7 11% 75.62 1001.6
05 13:53 SW 24 G 43 16.09 Fair CLR 18.9 -11.1 12% 75.67 1002.6
05 12:53 W 17 G 35 16.09 A Few Clouds FEW100 18.3 -8.9 15% 75.67 1002.8
05 11:53 W 24 G 31 16.09 Fair CLR 17.8 -7.8 18.3 11.1 17% 75.72 1003.3
05 10:53 W 22 G 41 16.09 Fair CLR 17.2 -6.7 19% 75.72 1003.6
05 09:53 N 9 16.09 Fair CLR 15.6 -6.1 22% 75.79 1004.0
05 08:53 NE 7 16.09 Fair CLR 14.4 -6.7 23% 75.84 1004.9
05 07:53 SW 11 16.09 Fair CLR 12.8 -7.2 24% 75.9 1005.4
05 06:53 SE 11 16.09 Partly Cloudy SCT100 12.2 -7.2 25% 75.87 1005.1
Date Time (mdt) Wind (kph) Vis. (km) Weather Sky Cond. Air Dwpt Max. Min. Relative Humidity Wind Chill (°C) Heat Index (°C) altimeter (cm) sea level (mb) 1 hr 3 hr 6 hr
6 hour
Temperature (ºC) Pressure Precipitation (cm)